Time;durP1;ratioP1;P1;durP2;ratioP2;P2;SDS_P1;SDS_P2;PMS_P1;PMS_P2;Temp;Humidity;BMP_temperature;BMP_pressure;BME280_temperature;BME280_humidity;BME280_pressure;Samples;Min_cycle;Max_cycle;Signal;HPM_P1;HPM_P2
2022/03/13 00:02:11;;;;;;;23.17;15.13;;;;;;;3.17;68.53;98109.13;5055441;28;20267;-77
2022/03/13 00:04:38;;;;;;;20.20;14.07;;;;;;;3.24;68.13;98118.41;5056503;28;20216;-77
2022/03/13 00:07:09;;;;;;;19.87;13.07;;;;;;;3.20;68.47;98116.00;5056398;28;20215;-76
2022/03/13 00:09:36;;;;;;;20.33;14.13;;;;;;;3.18;69.18;98113.44;5056756;28;20255;-77
2022/03/13 00:12:14;;;;;;;24.07;14.63;;;;;;;3.22;68.59;98124.63;5053162;28;20580;-76
2022/03/13 00:14:44;;;;;;;20.33;13.93;;;;;;;3.17;69.07;98116.97;5056063;28;20212;-78
2022/03/13 00:17:14;;;;;;;18.67;12.60;;;;;;;3.12;69.85;98113.69;5056209;28;20244;-76
2022/03/13 00:19:41;;;;;;;22.77;14.77;;;;;;;3.14;69.68;98111.88;5062821;28;20612;-77
2022/03/13 00:22:09;;;;;;;24.87;14.07;;;;;;;3.10;69.71;98118.13;5056396;28;20223;-76
2022/03/13 00:24:36;;;;;;;23.03;14.23;;;;;;;3.06;69.25;98121.75;5056018;28;20240;-76
2022/03/13 00:27:06;;;;;;;23.83;14.67;;;;;;;2.98;69.30;98130.81;5055537;28;20244;-76
2022/03/13 00:29:34;;;;;;;21.93;14.03;;;;;;;2.77;70.01;98127.31;5062471;28;20215;-76
2022/03/13 00:32:00;;;;;;;22.93;14.70;;;;;;;2.60;71.38;98116.66;5056073;28;20308;-76
2022/03/13 00:34:27;;;;;;;22.80;14.23;;;;;;;2.46;72.78;98111.06;5056084;28;20224;-76
2022/03/13 00:36:53;;;;;;;23.30;14.93;;;;;;;2.46;71.86;98121.50;5055648;28;20213;-76
2022/03/13 00:39:19;;;;;;;24.23;15.40;;;;;;;2.55;71.42;98125.53;5054804;28;20579;-76
2022/03/13 00:41:46;;;;;;;23.87;15.67;;;;;;;2.56;70.81;98122.88;5055866;28;20216;-76
2022/03/13 00:44:14;;;;;;;22.33;14.23;;;;;;;2.47;69.44;98115.41;5055504;28;20705;-76
2022/03/13 00:46:41;;;;;;;26.67;16.00;;;;;;;2.33;69.49;98109.84;5055788;28;20233;-76
2022/03/13 00:49:08;;;;;;;22.37;14.53;;;;;;;2.15;69.60;98118.34;5055785;28;20223;-76
2022/03/13 00:51:34;;;;;;;23.50;14.47;;;;;;;1.95;69.57;98118.19;5055643;28;20240;-76
2022/03/13 00:54:00;;;;;;;23.97;15.37;;;;;;;1.75;71.09;98130.22;5055526;28;20215;-77
2022/03/13 00:56:27;;;;;;;22.43;15.23;;;;;;;1.58;72.79;98117.78;5055745;28;20215;-78
2022/03/13 00:58:53;;;;;;;22.97;15.90;;;;;;;1.46;73.89;98126.00;5053521;28;20231;-76
2022/03/13 01:01:21;;;;;;;24.63;15.87;;;;;;;1.40;74.90;98123.59;5054958;28;20247;-76
2022/03/13 01:03:51;;;;;;;25.80;16.43;;;;;;;1.32;75.77;98120.41;5055382;28;20236;-76
2022/03/13 01:06:18;;;;;;;23.33;15.37;;;;;;;1.34;75.64;98118.59;5056070;28;20211;-78
2022/03/13 01:08:47;;;;;;;23.23;15.13;;;;;;;1.30;76.52;98111.78;5057282;28;20590;-77
2022/03/13 01:11:14;;;;;;;22.57;14.53;;;;;;;1.25;76.69;98113.72;5055392;28;20211;-78
2022/03/13 01:13:41;;;;;;;22.27;15.83;;;;;;;1.29;76.46;98120.50;5055165;28;20212;-78
2022/03/13 01:16:14;;;;;;;21.97;15.03;;;;;;;1.26;76.58;98115.41;5054744;28;20221;-77
2022/03/13 01:18:44;;;;;;;23.00;15.07;;;;;;;1.18;77.38;98112.19;5057022;28;20207;-77
2022/03/13 01:21:11;;;;;;;25.37;15.53;;;;;;;1.16;77.14;98107.97;5056644;28;20281;-77
2022/03/13 01:23:39;;;;;;;24.10;15.20;;;;;;;1.19;77.22;98108.72;5054589;28;20238;-77
2022/03/13 01:26:37;;;;;;;22.73;15.07;;;;;;;1.20;77.98;98112.13;5054553;28;20219;-77
2022/03/13 01:29:07;;;;;;;21.23;14.47;;;;;;;1.17;76.67;98107.88;5060866;28;20215;-78
2022/03/13 01:31:35;;;;;;;23.03;15.40;;;;;;;1.13;75.95;98105.44;5052699;28;20208;-78
2022/03/13 01:34:05;;;;;;;26.03;16.03;;;;;;;0.96;77.11;98102.53;5054393;28;20218;-77
2022/03/13 01:36:31;;;;;;;25.07;15.40;;;;;;;0.81;78.73;98098.66;5054706;28;20215;-77
2022/03/13 01:39:00;;;;;;;25.93;15.47;;;;;;;0.74;80.20;98102.34;5054468;28;20573;-77
2022/03/13 01:41:29;;;;;;;22.00;15.53;;;;;;;0.74;80.87;98093.72;5054567;28;20208;-77
2022/03/13 01:43:56;;;;;;;25.63;16.13;;;;;;;0.70;81.34;98092.94;5056601;28;20246;-77
2022/03/13 01:46:23;;;;;;;25.13;15.93;;;;;;;0.70;82.19;98100.75;5053899;28;20212;-77
2022/03/13 01:48:54;;;;;;;25.47;15.40;;;;;;;0.66;82.89;98096.53;5054528;28;20216;-76
2022/03/13 01:51:22;;;;;;;27.30;16.17;;;;;;;0.65;82.68;98089.63;5053926;28;20219;-77
2022/03/13 01:53:52;;;;;;;22.40;15.13;;;;;;;0.64;83.17;98095.75;5054299;28;20308;-77
2022/03/13 01:56:18;;;;;;;24.73;16.27;;;;;;;0.61;83.90;98092.38;5050094;28;20219;-78
2022/03/13 01:58:45;;;;;;;25.43;16.33;;;;;;;0.54;85.71;98081.31;5053523;28;20219;-78
2022/03/13 02:01:13;;;;;;;23.90;15.63;;;;;;;0.55;85.79;98083.00;5061592;28;20735;-78
2022/03/13 02:03:39;;;;;;;22.60;16.20;;;;;;;0.53;86.35;98084.81;5063235;28;20253;-78
2022/03/13 02:06:06;;;;;;;26.37;15.97;;;;;;;0.61;87.22;98088.03;5060052;28;20216;-77
2022/03/13 02:08:36;;;;;;;26.07;16.80;;;;;;;0.57;86.58;98086.41;5054783;28;20223;-77
2022/03/13 02:11:02;;;;;;;26.40;16.23;;;;;;;0.51;86.75;98083.16;5062909;28;20570;-77
2022/03/13 02:13:29;;;;;;;25.77;16.67;;;;;;;0.51;87.45;98090.97;5057173;28;20216;-77
2022/03/13 02:15:56;;;;;;;24.67;16.33;;;;;;;0.50;88.43;98095.28;5054250;28;20216;-77
2022/03/13 02:18:22;;;;;;;25.57;16.17;;;;;;;0.66;87.40;98090.47;5054018;28;20273;-77
2022/03/13 02:20:49;;;;;;;26.17;16.80;;;;;;;0.77;87.62;98086.66;5060078;28;20222;-76
2022/03/13 02:23:20;;;;;;;26.13;16.23;;;;;;;0.87;87.36;98079.41;5052013;28;20244;-77
2022/03/13 02:25:49;;;;;;;26.17;17.43;;;;;;;0.85;87.50;98082.06;5050858;28;20219;-77
2022/03/13 02:28:19;;;;;;;27.83;17.27;;;;;;;0.97;88.05;98086.00;5053859;28;20247;-77
2022/03/13 02:30:46;;;;;;;22.37;16.10;;;;;;;0.98;87.86;98078.16;5053552;28;20215;-77
2022/03/13 02:33:13;;;;;;;26.57;16.83;;;;;;;0.96;88.12;98074.75;5054314;28;20244;-77
2022/03/13 02:35:40;;;;;;;26.43;16.37;;;;;;;0.89;87.91;98073.25;5053876;28;20226;-77
2022/03/13 02:38:06;;;;;;;26.50;16.83;;;;;;;0.86;89.14;98075.94;5053395;28;20704;-77
2022/03/13 02:40:35;;;;;;;25.53;16.70;;;;;;;0.91;88.00;98073.19;5053625;28;20212;-77
2022/03/13 02:43:01;;;;;;;21.47;15.43;;;;;;;0.89;88.06;98075.00;5054097;28;20242;-77
2022/03/13 02:45:31;;;;;;;25.80;16.10;;;;;;;0.87;88.47;98080.25;5053470;28;20686;-77
2022/03/13 02:47:58;;;;;;;27.00;15.93;;;;;;;0.86;88.49;98078.56;5053380;28;20223;-77
2022/03/13 02:50:25;;;;;;;23.17;15.87;;;;;;;0.84;87.66;98080.34;5051920;28;20215;-77
2022/03/13 02:52:51;;;;;;;27.47;16.43;;;;;;;0.88;88.42;98084.56;5054109;28;20594;-77
2022/03/13 02:55:18;;;;;;;29.80;17.37;;;;;;;0.84;88.02;98072.56;5053554;28;20219;-77
2022/03/13 02:57:46;;;;;;;26.73;17.00;;;;;;;0.82;88.32;98071.75;5053234;28;20222;-77
2022/03/13 03:00:14;;;;;;;26.00;17.83;;;;;;;0.79;89.29;98066.63;5055341;28;20219;-77
2022/03/13 03:02:40;;;;;;;23.50;16.77;;;;;;;0.78;89.19;98074.50;5053855;28;20582;-77
2022/03/13 03:05:08;;;;;;;25.73;16.47;;;;;;;0.79;89.41;98071.84;5050186;28;20262;-77
2022/03/13 03:07:35;;;;;;;24.53;15.80;;;;;;;0.80;88.98;98073.53;5053390;28;20216;-77
2022/03/13 03:10:02;;;;;;;22.43;14.53;;;;;;;0.82;88.53;98078.69;5053150;28;20227;-77
2022/03/13 03:12:28;;;;;;;26.33;15.77;;;;;;;0.84;88.32;98080.34;5053393;28;20218;-77
2022/03/13 03:14:56;;;;;;;21.70;14.23;;;;;;;0.87;88.21;98085.44;5056047;28;20258;-76
2022/03/13 03:17:23;;;;;;;21.50;14.10;;;;;;;0.93;87.18;98085.25;5057445;28;20219;-77
2022/03/13 03:19:50;;;;;;;22.33;14.43;;;;;;;0.94;86.61;98081.78;5058951;28;20219;-77
2022/03/13 03:22:16;;;;;;;25.27;15.70;;;;;;;0.93;86.65;98080.06;5057125;28;20586;-77
2022/03/13 03:24:43;;;;;;;24.73;15.97;;;;;;;0.82;86.65;98082.16;5056393;28;20239;-77
2022/03/13 03:27:09;;;;;;;27.07;15.80;;;;;;;0.71;87.62;98078.19;5057253;28;20222;-78
2022/03/13 03:29:36;;;;;;;27.17;16.57;;;;;;;0.63;87.75;98083.63;5056869;28;20215;-77
2022/03/13 03:32:04;;;;;;;25.03;16.03;;;;;;;0.67;87.81;98081.75;5056864;28;20216;-77
2022/03/13 03:34:31;;;;;;;27.00;16.03;;;;;;;0.61;88.87;98087.19;5057323;28;20226;-77
2022/03/13 03:37:00;;;;;;;25.80;15.30;;;;;;;0.51;88.33;98086.59;5056836;28;20762;-77
2022/03/13 03:39:28;;;;;;;30.97;16.30;;;;;;;0.42;87.72;98086.88;5056668;28;20227;-77
2022/03/13 03:41:55;;;;;;;27.37;16.57;;;;;;;0.37;88.25;98083.56;5055296;28;20226;-77
2022/03/13 03:44:22;;;;;;;25.23;16.47;;;;;;;0.36;89.36;98087.06;5057080;28;20243;-77
2022/03/13 03:46:49;;;;;;;26.83;17.20;;;;;;;0.38;89.24;98089.63;5056592;28;20699;-76
2022/03/13 03:49:18;;;;;;;25.57;15.60;;;;;;;0.29;89.85;98080.34;5056886;28;20219;-76
2022/03/13 03:51:45;;;;;;;23.97;15.63;;;;;;;0.38;89.38;98085.25;5056483;28;20219;-76
2022/03/13 03:54:12;;;;;;;22.93;15.70;;;;;;;0.30;87.98;98076.84;5056896;28;20216;-76
2022/03/13 03:56:39;;;;;;;24.90;15.93;;;;;;;0.25;88.13;98070.94;5056455;28;20218;-76
2022/03/13 03:59:06;;;;;;;25.50;15.80;;;;;;;0.27;88.01;98061.34;5056740;28;20212;-76
2022/03/13 04:01:37;;;;;;;26.20;15.33;;;;;;;0.25;87.94;98067.50;5056690;28;20247;-76
2022/03/13 04:04:05;;;;;;;22.40;15.40;;;;;;;0.35;87.82;98064.56;5056246;28;20242;-76
2022/03/13 04:06:34;;;;;;;24.40;15.03;;;;;;;0.37;87.60;98067.97;5054843;28;20225;-76
2022/03/13 04:09:00;;;;;;;20.63;14.03;;;;;;;0.41;87.09;98067.00;5056583;28;20305;-76
2022/03/13 04:11:27;;;;;;;22.17;14.73;;;;;;;0.42;88.15;98070.41;5056311;28;20208;-76
2022/03/13 04:13:53;;;;;;;22.30;14.10;;;;;;;0.44;87.69;98064.28;5055846;28;20222;-76
2022/03/13 04:16:20;;;;;;;21.43;14.07;;;;;;;0.51;87.13;98065.78;5056296;28;20228;-76
2022/03/13 04:18:47;;;;;;;20.07;13.73;;;;;;;0.52;87.16;98066.66;5058002;28;20205;-76
2022/03/13 04:21:15;;;;;;;21.43;14.50;;;;;;;0.55;86.17;98061.38;5059452;28;20220;-76
2022/03/13 04:23:42;;;;;;;25.23;15.30;;;;;;;0.50;86.70;98069.28;5055775;28;20255;-76
2022/03/13 04:26:09;;;;;;;20.77;14.17;;;;;;;0.54;85.51;98076.09;5056107;28;20638;-76
2022/03/13 04:28:36;;;;;;;21.70;13.97;;;;;;;0.52;85.69;98072.72;5056017;28;20604;-76
2022/03/13 04:31:08;;;;;;;22.20;14.10;;;;;;;0.64;85.57;98074.94;5056032;28;20341;-77
2022/03/13 04:33:36;;;;;;;21.67;14.63;;;;;;;0.67;84.81;98072.22;5053970;28;20746;-77
2022/03/13 04:36:10;;;;;;;19.83;13.20;;;;;;;0.70;84.76;98073.88;5056073;28;20219;-77
2022/03/13 04:38:37;;;;;;;19.83;13.27;;;;;;;0.69;85.56;98070.41;5055934;28;20656;-78
2022/03/13 04:41:05;;;;;;;21.50;13.47;;;;;;;0.63;85.63;98069.78;5056360;28;20628;-76
2022/03/13 04:43:31;;;;;;;21.97;14.43;;;;;;;0.63;85.74;98075.81;5055540;28;20214;-77
2022/03/13 04:45:58;;;;;;;20.33;14.60;;;;;;;0.61;86.09;98069.81;5055566;28;20235;-77
2022/03/13 04:48:25;;;;;;;25.10;15.07;;;;;;;0.55;85.35;98069.16;5055526;28;20211;-77
2022/03/13 04:50:51;;;;;;;22.47;14.27;;;;;;;0.48;85.98;98068.50;5056367;28;20250;-77
2022/03/13 04:53:18;;;;;;;25.17;14.83;;;;;;;0.41;86.42;98073.91;5061929;28;20215;-77
2022/03/13 04:55:44;;;;;;;22.37;14.67;;;;;;;0.34;87.30;98070.66;5055417;28;20223;-77
2022/03/13 04:58:12;;;;;;;20.20;14.13;;;;;;;0.30;86.46;98066.44;5055285;28;20302;-77
2022/03/13 05:00:38;;;;;;;24.17;14.90;;;;;;;0.24;86.85;98066.63;5054119;28;20667;-77
2022/03/13 05:03:06;;;;;;;23.90;15.23;;;;;;;0.15;88.10;98063.47;5055343;28;20783;-77
2022/03/13 05:05:34;;;;;;;23.20;15.17;;;;;;;0.17;87.21;98067.72;5055139;28;20305;-77
2022/03/13 05:08:00;;;;;;;23.50;15.43;;;;;;;0.21;84.29;98061.53;5055219;28;20223;-77
2022/03/13 05:10:35;;;;;;;23.70;14.60;;;;;;;0.15;82.25;98074.72;5055130;28;20215;-77
2022/03/13 05:13:02;;;;;;;23.07;14.33;;;;;;;-0.03;82.75;98077.84;5052878;28;20215;-77
2022/03/13 05:15:30;;;;;;;24.77;15.87;;;;;;;-0.22;83.86;98081.81;5055284;28;20305;-77
2022/03/13 05:17:56;;;;;;;23.13;15.43;;;;;;;-0.36;84.81;98080.53;5055197;28;20213;-77
2022/03/13 05:20:22;;;;;;;23.37;14.67;;;;;;;-0.48;87.68;98085.19;5057589;28;20225;-77
2022/03/13 05:22:49;;;;;;;23.83;14.63;;;;;;;-0.50;89.29;98085.22;5054903;28;20219;-77
2022/03/13 05:25:16;;;;;;;22.60;15.87;;;;;;;-0.43;89.37;98085.91;5053025;28;20709;-77
2022/03/13 05:27:42;;;;;;;23.57;15.43;;;;;;;-0.37;87.63;98085.75;5054696;28;20215;-77
2022/03/13 05:30:10;;;;;;;25.73;15.17;;;;;;;-0.42;88.02;98088.47;5054820;28;20580;-77
2022/03/13 05:32:39;;;;;;;22.73;14.57;;;;;;;-0.38;88.41;98094.44;5052073;28;20227;-77
2022/03/13 05:35:06;;;;;;;23.13;14.57;;;;;;;-0.49;89.00;98101.66;5054357;28;20258;-77
2022/03/13 05:37:32;;;;;;;20.90;13.50;;;;;;;-0.46;87.62;98096.34;5054303;28;20597;-77
2022/03/13 05:39:59;;;;;;;21.90;13.83;;;;;;;-0.50;87.85;98089.56;5054700;28;20226;-77
2022/03/13 05:42:25;;;;;;;22.37;13.70;;;;;;;-0.55;87.56;98096.63;5054622;28;20216;-77
2022/03/13 05:44:52;;;;;;;21.37;12.70;;;;;;;-0.66;87.99;98083.94;5054697;28;20277;-77
2022/03/13 05:47:19;;;;;;;18.13;11.93;;;;;;;-0.68;88.22;98100.41;5054265;28;20219;-77
2022/03/13 05:49:48;;;;;;;22.43;13.33;;;;;;;-0.58;87.70;98099.28;5054605;28;20226;-77
2022/03/13 05:52:15;;;;;;;23.93;13.57;;;;;;;-0.50;86.29;98111.16;5052650;28;20604;-79
2022/03/13 05:54:41;;;;;;;17.63;11.73;;;;;;;-0.55;84.37;98118.22;5054573;28;20306;-77
2022/03/13 05:57:10;;;;;;;20.87;12.37;;;;;;;-0.60;84.28;98119.22;5054389;28;20219;-77
2022/03/13 05:59:36;;;;;;;15.43;11.07;;;;;;;-0.66;84.20;98114.19;5054051;28;20230;-77
2022/03/13 06:02:04;;;;;;;16.07;10.40;;;;;;;-0.71;85.87;98129.03;5053967;28;20251;-77
2022/03/13 06:04:31;;;;;;;16.70;10.57;;;;;;;-0.63;86.28;98124.53;5054305;28;20262;-77
2022/03/13 06:06:59;;;;;;;16.87;11.00;;;;;;;-0.49;84.01;98118.06;5054376;28;20576;-77
2022/03/13 06:09:26;;;;;;;14.70;9.73;;;;;;;-0.41;83.14;98121.31;5053901;28;20211;-78
2022/03/13 06:11:53;;;;;;;12.73;9.50;;;;;;;-0.36;81.95;98118.59;5053665;28;20216;-79
2022/03/13 06:14:20;;;;;;;13.93;9.20;;;;;;;-0.24;80.98;98126.06;5054047;28;20223;-77
2022/03/13 06:16:46;;;;;;;12.57;8.07;;;;;;;-0.18;79.09;98131.09;5052348;28;20219;-77
2022/03/13 06:19:13;;;;;;;12.90;8.70;;;;;;;-0.16;79.05;98138.78;5060100;28;20204;-77
2022/03/13 06:21:41;;;;;;;13.30;9.00;;;;;;;-0.22;79.84;98136.34;5054408;28;20215;-77
2022/03/13 06:24:09;;;;;;;12.57;8.73;;;;;;;-0.11;79.67;98131.72;5054252;28;20242;-77
2022/03/13 06:26:36;;;;;;;14.20;9.17;;;;;;;0.07;79.06;98136.41;5053827;28;20219;-77
2022/03/13 06:29:03;;;;;;;13.23;8.67;;;;;;;0.24;78.25;98138.53;5053939;28;20310;-77
2022/03/13 06:31:29;;;;;;;14.40;8.77;;;;;;;0.30;78.26;98139.22;5054078;28;20220;-77
2022/03/13 06:33:56;;;;;;;13.03;9.00;;;;;;;0.38;79.18;98142.44;5053871;28;20221;-77
2022/03/13 06:36:22;;;;;;;10.80;7.77;;;;;;;0.51;78.99;98145.56;5053810;28;20218;-77
2022/03/13 06:38:49;;;;;;;13.77;8.80;;;;;;;0.64;78.89;98145.16;5053500;28;20674;-77
2022/03/13 06:41:18;;;;;;;14.23;8.70;;;;;;;0.73;77.84;98144.00;5054124;28;20574;-77
2022/03/13 06:43:45;;;;;;;12.63;8.10;;;;;;;0.79;78.64;98147.28;5051902;28;20651;-77
2022/03/13 06:46:12;;;;;;;13.33;8.63;;;;;;;0.91;79.30;98149.50;5059489;28;20243;-77
2022/03/13 06:48:39;;;;;;;16.00;8.47;;;;;;;1.10;77.03;98153.22;5053329;28;20212;-76
2022/03/13 06:51:05;;;;;;;13.20;8.27;;;;;;;1.24;76.81;98160.63;5053708;28;20715;-77
2022/03/13 06:53:35;;;;;;;12.67;7.93;;;;;;;1.35;77.02;98151.53;5053208;28;20224;-77
2022/03/13 06:56:01;;;;;;;12.47;8.97;;;;;;;1.52;76.00;98158.78;5053206;28;20281;-76
2022/03/13 06:58:29;;;;;;;13.10;8.07;;;;;;;1.66;74.29;98162.66;5053376;28;20218;-76
2022/03/13 07:00:56;;;;;;;12.30;8.23;;;;;;;1.80;73.35;98157.84;5053578;28;20712;-76
2022/03/13 07:03:22;;;;;;;10.87;7.70;;;;;;;1.92;73.79;98162.63;5053466;28;20219;-76
2022/03/13 07:05:49;;;;;;;12.87;8.07;;;;;;;2.09;71.33;98162.88;5053197;28;20240;-76
2022/03/13 07:08:16;;;;;;;11.13;7.50;;;;;;;2.24;69.03;98167.56;5052663;28;20233;-76
2022/03/13 07:10:43;;;;;;;9.73;7.20;;;;;;;2.38;68.43;98169.69;5054084;28;20221;-76
2022/03/13 07:13:10;;;;;;;12.33;7.90;;;;;;;2.47;66.90;98170.19;5065573;28;20242;-77
2022/03/13 07:15:39;;;;;;;10.23;7.73;;;;;;;2.58;68.15;98168.00;5056179;28;20215;-77
2022/03/13 07:18:06;;;;;;;10.97;8.80;;;;;;;2.69;68.20;98173.69;5056417;28;20311;-77
2022/03/13 07:20:32;;;;;;;10.07;7.73;;;;;;;2.81;67.50;98170.63;5057102;28;20223;-77
2022/03/13 07:22:59;;;;;;;12.03;8.37;;;;;;;2.97;67.16;98173.50;5056182;28;20212;-76
2022/03/13 07:25:25;;;;;;;15.40;9.30;;;;;;;3.11;66.99;98172.06;5054579;28;20224;-78
2022/03/13 07:27:52;;;;;;;13.07;9.10;;;;;;;3.25;66.11;98169.72;5063120;28;20222;-76
2022/03/13 07:30:18;;;;;;;14.23;9.47;;;;;;;3.45;65.64;98167.19;5056012;28;20208;-75
2022/03/13 07:32:46;;;;;;;12.97;9.07;;;;;;;3.58;65.95;98168.41;5062770;28;20212;-77
2022/03/13 07:35:13;;;;;;;12.17;8.83;;;;;;;3.70;65.70;98165.28;5044527;28;20212;-76
2022/03/13 07:37:40;;;;;;;15.87;8.70;;;;;;;3.93;65.11;98166.91;5036455;28;20220;-75
2022/03/13 07:40:07;;;;;;;15.57;9.50;;;;;;;4.10;64.29;98175.72;5051359;28;20220;-79
2022/03/13 07:42:34;;;;;;;13.47;9.00;;;;;;;4.18;64.30;98173.66;5051846;28;20215;-77
2022/03/13 07:45:01;;;;;;;12.97;10.03;;;;;;;4.31;64.76;98174.81;5061540;28;20232;-82
2022/03/13 07:47:30;;;;;;;16.20;9.43;;;;;;;4.42;62.72;98167.34;5055688;28;20264;-82
2022/03/13 07:49:58;;;;;;;14.27;9.90;;;;;;;4.50;62.49;98170.47;5054483;28;20217;-81
2022/03/13 07:52:25;;;;;;;13.50;9.90;;;;;;;4.66;61.89;98171.50;5038760;28;20308;-80
2022/03/13 07:54:52;;;;;;;14.27;10.27;;;;;;;4.78;61.91;98164.84;5053137;28;20278;-80
2022/03/13 07:57:18;;;;;;;14.97;10.60;;;;;;;4.85;61.66;98172.34;5051524;28;20212;-79
2022/03/13 07:59:47;;;;;;;13.83;10.23;;;;;;;4.84;61.98;98165.41;5055626;28;20223;-79
2022/03/13 08:02:13;;;;;;;14.33;10.37;;;;;;;4.88;61.89;98169.59;5054378;28;20241;-80
2022/03/13 08:04:40;;;;;;;14.53;10.37;;;;;;;4.99;62.13;98166.47;5055881;28;20216;-80
2022/03/13 08:07:11;;;;;;;15.47;11.63;;;;;;;5.11;61.99;98168.50;5055791;28;20224;-81
2022/03/13 08:09:39;;;;;;;15.30;10.93;;;;;;;5.32;59.40;98163.09;5057375;28;20275;-81
2022/03/13 08:12:06;;;;;;;15.57;10.83;;;;;;;5.39;59.68;98167.16;5046089;28;20636;-80
2022/03/13 08:14:33;;;;;;;15.83;10.30;;;;;;;5.54;56.83;98171.63;5054755;28;20706;-80
2022/03/13 08:16:59;;;;;;;16.30;11.07;;;;;;;5.63;56.90;98167.72;5055560;28;20240;-80
2022/03/13 08:19:26;;;;;;;13.43;9.20;;;;;;;5.79;54.47;98164.25;5056917;28;20219;-79
2022/03/13 08:21:52;;;;;;;15.43;9.90;;;;;;;6.01;55.31;98169.31;5055460;28;20246;-79
2022/03/13 08:24:20;;;;;;;13.53;10.23;;;;;;;6.20;55.29;98170.94;5054106;28;20586;-79
2022/03/13 08:26:47;;;;;;;13.50;9.53;;;;;;;6.39;52.20;98170.81;5047358;28;20247;-79
2022/03/13 08:29:15;;;;;;;13.03;10.07;;;;;;;6.50;52.66;98166.72;5053771;28;20229;-79
2022/03/13 08:31:41;;;;;;;13.90;9.87;;;;;;;6.65;51.78;98163.28;5054513;28;20320;-79
2022/03/13 08:34:08;;;;;;;15.23;9.67;;;;;;;6.77;51.77;98169.69;5054412;28;20219;-79
2022/03/13 08:36:36;;;;;;;14.67;10.60;;;;;;;6.69;51.34;98164.81;5053755;28;20676;-79
2022/03/13 08:39:03;;;;;;;15.10;10.37;;;;;;;6.89;50.00;98161.13;5054826;28;20260;-82
2022/03/13 08:41:31;;;;;;;13.23;9.20;;;;;;;6.98;49.15;98166.75;5055824;28;20582;-77
2022/03/13 08:43:58;;;;;;;13.67;10.23;;;;;;;6.97;49.02;98167.66;5055169;28;20222;-75
2022/03/13 08:46:24;;;;;;;14.90;10.30;;;;;;;7.04;49.49;98176.91;5053563;28;20243;-75
2022/03/13 08:48:51;;;;;;;15.40;11.23;;;;;;;7.26;49.63;98166.91;5036852;28;20216;-77
2022/03/13 08:51:19;;;;;;;14.17;10.13;;;;;;;7.30;48.86;98163.19;5060212;28;20296;-76
2022/03/13 08:53:46;;;;;;;16.17;10.70;;;;;;;7.51;50.05;98162.81;5061651;28;20304;-79
2022/03/13 08:56:13;;;;;;;15.30;10.67;;;;;;;7.81;49.17;98155.81;5058463;28;20226;-76
2022/03/13 08:58:41;;;;;;;15.97;11.30;;;;;;;7.93;49.70;98159.50;5062191;28;20697;-77
2022/03/13 09:01:09;;;;;;;15.73;10.70;;;;;;;7.96;49.61;98160.19;5057426;28;20356;-79
2022/03/13 09:03:41;;;;;;;16.00;11.20;;;;;;;8.08;48.67;98153.38;5061712;28;20219;-86
2022/03/13 09:06:08;;;;;;;17.30;11.47;;;;;;;8.25;49.91;98150.59;5059801;28;20262;-84
2022/03/13 09:08:40;;;;;;;16.37;10.97;;;;;;;8.46;49.46;98152.78;5062355;28;20227;-87
2022/03/13 09:11:17;;;;;;;17.70;12.03;;;;;;;8.53;48.79;98145.38;5065574;28;20245;-86
2022/03/13 09:13:45;;;;;;;14.83;11.00;;;;;;;8.70;48.81;98146.03;5065833;28;20218;-79
2022/03/13 09:16:24;;;;;;;17.83;12.13;;;;;;;8.92;47.43;98137.63;5056463;28;20243;-86
2022/03/13 09:18:54;;;;;;;18.43;11.47;;;;;;;9.13;46.84;98131.84;5046647;28;20210;-84
2022/03/13 09:21:23;;;;;;;16.63;12.20;;;;;;;9.12;47.60;98139.88;5064851;28;20215;-83
2022/03/13 09:23:50;;;;;;;15.67;11.80;;;;;;;9.18;47.85;98135.06;5059327;28;20280;-79
2022/03/13 09:26:19;;;;;;;15.37;11.70;;;;;;;9.16;47.99;98136.09;5062658;28;20214;-86
2022/03/13 09:28:53;;;;;;;17.97;12.80;;;;;;;9.29;48.42;98137.88;5065230;28;20215;-86
2022/03/13 09:31:19;;;;;;;18.03;12.13;;;;;;;9.38;47.96;98137.28;5062581;28;20223;-81
2022/03/13 09:33:49;;;;;;;16.97;12.30;;;;;;;9.37;47.40;98140.00;5060406;28;20315;-84
2022/03/13 09:36:24;;;;;;;16.00;11.90;;;;;;;9.46;47.36;98142.03;5064092;28;20267;-86
2022/03/13 09:38:51;;;;;;;19.20;13.17;;;;;;;9.52;47.50;98131.97;5055861;28;20246;-84
2022/03/13 09:44:18;;;;;;;18.03;13.07;;;;;;;9.88;46.60;98120.75;5054637;28;20298;-80
2022/03/13 09:46:44;;;;;;;16.10;12.77;;;;;;;9.95;46.92;98130.81;5061330;28;20239;-80
2022/03/13 09:49:11;;;;;;;18.20;12.93;;;;;;;10.05;46.62;98125.81;5043878;28;20208;-80
2022/03/13 09:51:39;;;;;;;18.17;12.90;;;;;;;10.11;46.21;98125.38;5056205;28;20213;-80
2022/03/13 09:54:13;;;;;;;19.77;13.83;;;;;;;10.15;46.43;98119.78;5061809;28;20242;-82
2022/03/13 09:56:40;;;;;;;17.10;12.90;;;;;;;10.31;46.59;98131.03;5056217;28;20712;-74
2022/03/13 09:59:07;;;;;;;19.40;13.77;;;;;;;10.46;45.91;98129.97;5060508;28;20213;-75
2022/03/13 10:01:35;;;;;;;17.47;12.77;;;;;;;10.50;45.67;98130.59;5051656;28;20754;-75
2022/03/13 10:04:04;;;;;;;18.73;13.50;;;;;;;10.58;45.26;98125.66;5054910;28;20218;-72
2022/03/13 10:06:33;;;;;;;18.97;13.53;;;;;;;10.62;45.27;98125.31;5054933;28;20255;-74
2022/03/13 10:09:29;;;;;;;19.83;14.30;;;;;;;10.83;45.29;98122.97;5055772;28;20312;-73
2022/03/13 10:12:07;;;;;;;18.50;13.83;;;;;;;11.08;45.59;98117.63;5047219;28;20221;-73
2022/03/13 10:14:35;;;;;;;19.33;13.57;;;;;;;11.18;44.60;98113.41;5063958;28;20207;-73
2022/03/13 10:17:01;;;;;;;20.03;13.70;;;;;;;11.23;45.02;98112.09;5059593;28;20243;-72
2022/03/13 10:19:31;;;;;;;18.40;13.83;;;;;;;11.14;43.24;98106.63;5058984;28;20585;-72
2022/03/13 10:22:06;;;;;;;18.30;13.70;;;;;;;11.17;43.75;98104.59;5064802;28;20248;-74
2022/03/13 10:24:42;;;;;;;23.70;13.80;;;;;;;11.38;44.49;98097.75;5062738;28;20280;-71
2022/03/13 10:27:11;;;;;;;20.23;14.40;;;;;;;11.55;44.51;98091.25;5058362;28;20221;-72
2022/03/13 10:29:37;;;;;;;18.87;13.80;;;;;;;11.71;44.27;98097.09;5060988;28;20218;-73
2022/03/13 10:32:05;;;;;;;19.67;14.20;;;;;;;11.84;43.45;98098.72;5047539;28;20225;-74
2022/03/13 10:34:32;;;;;;;18.77;13.20;;;;;;;11.86;43.94;98093.31;5057238;28;20257;-71
2022/03/13 10:36:59;;;;;;;17.60;13.43;;;;;;;11.91;43.58;98092.00;5071056;28;20233;-69
2022/03/13 10:39:25;;;;;;;18.40;13.33;;;;;;;11.95;42.38;98093.47;5071543;28;20214;-71
2022/03/13 10:41:57;;;;;;;19.67;14.37;;;;;;;11.93;43.17;98087.44;5070409;28;20567;-72
2022/03/13 10:44:25;;;;;;;18.37;13.47;;;;;;;12.00;43.77;98088.69;5070804;28;20575;-72
2022/03/13 10:46:54;;;;;;;19.33;14.07;;;;;;;12.39;43.66;98082.97;5071117;28;20230;-72
2022/03/13 10:49:36;;;;;;;21.53;14.93;;;;;;;12.57;42.46;98083.34;5071551;28;20218;-73
2022/03/13 10:52:17;;;;;;;18.93;14.47;;;;;;;12.67;42.56;98082.53;5067925;28;20245;-74
2022/03/13 10:54:46;;;;;;;18.73;13.67;;;;;;;12.73;41.70;98079.41;5069950;28;20221;-73
2022/03/13 10:57:14;;;;;;;20.73;13.77;;;;;;;12.88;42.02;98077.31;5070601;28;20240;-72
2022/03/13 10:59:43;;;;;;;20.90;14.37;;;;;;;12.89;41.62;98071.09;5069869;28;20216;-75
2022/03/13 11:02:14;;;;;;;21.03;14.73;;;;;;;13.05;41.75;98068.91;5044260;28;20235;-75
2022/03/13 11:04:50;;;;;;;19.53;14.40;;;;;;;13.14;40.58;98063.72;5035894;28;20269;-73
2022/03/13 11:07:17;;;;;;;19.07;13.90;;;;;;;13.09;40.54;98065.06;5049096;28;20214;-71
2022/03/13 11:09:44;;;;;;;20.30;14.33;;;;;;;13.22;41.22;98063.09;5049771;28;20212;-73
2022/03/13 11:12:17;;;;;;;21.77;15.33;;;;;;;13.46;40.41;98064.59;5043503;28;20221;-72
2022/03/13 11:14:49;;;;;;;21.27;15.17;;;;;;;13.48;40.35;98057.34;5047900;28;20219;-72
2022/03/13 11:17:16;;;;;;;20.10;14.57;;;;;;;13.55;39.97;98057.69;5051938;28;20235;-71
2022/03/13 11:19:44;;;;;;;19.77;14.17;;;;;;;13.54;40.20;98058.66;5051238;28;20216;-73
2022/03/13 11:22:10;;;;;;;18.30;13.63;;;;;;;13.62;39.90;98054.41;5051932;28;20216;-72
2022/03/13 11:24:37;;;;;;;19.80;14.50;;;;;;;13.65;39.65;98048.00;5050282;28;20219;-72
2022/03/13 11:27:09;;;;;;;21.80;14.90;;;;;;;13.63;39.38;98050.78;5048569;28;20215;-73
2022/03/13 11:29:48;;;;;;;21.53;15.63;;;;;;;13.74;38.85;98042.75;5051816;28;20219;-74
2022/03/13 11:32:46;;;;;;;21.50;14.77;;;;;;;13.85;40.39;98050.69;5050763;28;20207;-72